createdAt,value
2022-09-12T00:03:18.036Z,13.1
2022-09-12T00:08:58.582Z,13.1
2022-09-12T00:14:37.254Z,12.9
2022-09-12T00:20:15.133Z,12.9
2022-09-12T00:25:52.567Z,12.8
2022-09-12T00:31:29.583Z,12.8
2022-09-12T00:36:51.611Z,12.6
2022-09-12T00:42:29.724Z,12.6
2022-09-12T00:48:06.157Z,12.4
2022-09-12T00:53:43.941Z,12.4
2022-09-12T00:59:21.486Z,12.3
2022-09-12T01:04:43.518Z,12.3
2022-09-12T01:10:21.023Z,12.3
2022-09-12T01:15:58.192Z,12.2
2022-09-12T01:21:35.832Z,12.1
2022-09-12T01:27:13.463Z,12.1
2022-09-12T01:32:50.382Z,12
2022-09-12T01:38:27.688Z,11.9
2022-09-12T01:44:04.667Z,11.8
2022-09-12T01:49:42.337Z,11.8
2022-09-12T01:55:07.733Z,11.7
2022-09-12T02:00:46.633Z,11.6
2022-09-12T02:06:24.160Z,11.5
2022-09-12T02:12:01.296Z,11.4
2022-09-12T02:17:39.172Z,11.3
2022-09-12T02:23:38.127Z,11.3
2022-09-12T02:29:15.084Z,11.3
2022-09-12T02:34:52.463Z,11.2
2022-09-12T02:40:30.501Z,11.1
2022-09-12T02:46:07.362Z,11.1
2022-09-12T02:51:45.391Z,11.1
2022-09-12T02:57:06.665Z,11
2022-09-12T03:02:44.669Z,10.9
2022-09-12T03:08:21.800Z,10.8
2022-09-12T03:13:59.151Z,10.8
2022-09-12T03:19:20.919Z,10.8
2022-09-12T03:24:57.592Z,10.9
2022-09-12T03:30:34.654Z,10.9
2022-09-12T03:36:15.971Z,10.9
2022-09-12T03:41:53.307Z,10.8
2022-09-12T03:47:30.513Z,10.8
2022-09-12T03:53:07.311Z,10.9
2022-09-12T03:58:44.761Z,10.9
2022-09-12T04:04:22.960Z,10.9
2022-09-12T04:10:00.354Z,10.9
2022-09-12T04:15:07.656Z,10.8
2022-09-12T04:20:45.486Z,10.8
2022-09-12T04:26:23.601Z,10.8
2022-09-12T04:31:45.911Z,10.9
2022-09-12T04:37:23.188Z,10.9
2022-09-12T04:43:00.215Z,11.1
2022-09-12T04:48:37.632Z,11.3
2022-09-12T04:54:17.883Z,12
2022-09-12T04:59:55.454Z,12.9
2022-09-12T05:05:32.159Z,13.8
2022-09-12T05:11:13.098Z,14.8
2022-09-12T05:17:23.755Z,16.3
2022-09-12T05:22:45.974Z,17.8
2022-09-12T05:28:24.418Z,19.4
2022-09-12T05:34:00.933Z,20.4
2022-09-12T05:39:38.601Z,22.2
2022-09-12T05:45:20.999Z,24.8
2022-09-12T05:50:58.762Z,27.7
2022-09-12T05:56:35.606Z,30.7
2022-09-12T06:02:18.558Z,33.1
2022-09-12T06:07:56.461Z,34
2022-09-12T06:13:37.901Z,34.3
2022-09-12T06:19:20.051Z,36.7
2022-09-12T06:24:58.124Z,39.3
2022-09-12T06:30:39.937Z,42.4
2022-09-12T06:36:16.735Z,44.9
2022-09-12T06:41:58.832Z,44.4
2022-09-12T06:47:37.138Z,42.5
2022-09-12T06:53:15.416Z,40.9
2022-09-12T06:58:53.592Z,44.6
2022-09-12T07:04:16.765Z,49.8
2022-09-12T07:09:53.644Z,43.8
2022-09-12T07:15:30.652Z,39.3
2022-09-12T07:21:09.048Z,41.9
2022-09-12T07:26:47.198Z,43.8
2022-09-12T07:32:49.191Z,44.6
2022-09-12T07:38:10.758Z,43.6
2022-09-12T07:43:48.573Z,48.3
2022-09-12T07:49:26.239Z,41.6
2022-09-12T07:55:04.519Z,45.5
2022-09-12T08:01:05.611Z,50.9
2022-09-12T08:06:48.771Z,43.8
2022-09-12T08:12:30.124Z,51.4
2022-09-12T08:18:11.509Z,51
2022-09-12T08:23:38.703Z,50.4
2022-09-12T08:29:16.396Z,51.6
2022-09-12T08:34:54.329Z,51.5
2022-09-12T08:40:31.735Z,52.4
2022-09-12T08:45:58.774Z,54.1
2022-09-12T08:51:36.831Z,54.9
2022-09-12T08:57:14.747Z,53.2
2022-09-12T09:02:53.555Z,52.3
2022-09-12T09:08:31.350Z,52.3
2022-09-12T09:14:08.596Z,54.8
2022-09-12T09:19:50.586Z,56.1
2022-09-12T09:25:13.557Z,57.5
2022-09-12T09:31:12.197Z,58.2
2022-09-12T09:36:49.852Z,58.7
2022-09-12T09:42:15.251Z,58.9
2022-09-12T09:47:38.055Z,57.5
2022-09-12T09:53:17.533Z,51.4
2022-09-12T09:58:24.735Z,54.9
2022-09-12T10:03:36.213Z,60.8
2022-09-12T10:08:58.510Z,58.4
2022-09-12T10:14:21.928Z,59.1
2022-09-12T10:20:17.768Z,52.8
2022-09-12T10:25:43.148Z,56.4
2022-09-12T10:31:25.256Z,60.8
2022-09-12T10:37:02.211Z,51.3
2022-09-12T10:42:25.775Z,57.7
2022-09-12T10:48:07.442Z,61
2022-09-12T10:53:52.213Z,57.6
2022-09-12T10:59:34.327Z,58.6
2022-09-12T11:10:36.877Z,58.6
2022-09-12T11:16:16.411Z,58.1
2022-09-12T11:21:54.299Z,58.7
2022-09-12T11:38:16.495Z,58.6
2022-09-12T11:43:54.982Z,58.7
2022-09-12T11:49:35.517Z,58.8
2022-09-12T11:55:13.111Z,58.4
2022-09-12T12:00:50.777Z,58.4
2022-09-12T12:12:00.766Z,58.1
2022-09-12T12:17:27.978Z,56.4
2022-09-12T12:23:15.006Z,55.2
2022-09-12T12:28:56.003Z,53.4
2022-09-12T12:34:34.235Z,57.4
2022-09-12T12:40:16.821Z,62.9
2022-09-12T12:45:59.204Z,54.1
2022-09-12T12:51:37.648Z,50.3
2022-09-12T12:57:19.511Z,46.1
2022-09-12T13:03:03.924Z,47.7
2022-09-12T13:14:03.317Z,53.8
2022-09-12T13:19:41.229Z,52.6
2022-09-12T13:25:47.265Z,52.3
2022-09-12T13:31:24.654Z,51.1
2022-09-12T13:37:05.923Z,47.2
2022-09-12T13:42:44.104Z,43.4
2022-09-12T13:48:21.843Z,40.4
2022-09-12T13:53:59.267Z,40.8
2022-09-12T13:59:36.886Z,42.3
2022-09-12T14:05:15.313Z,43.6
2022-09-12T14:10:53.862Z,43.8
2022-09-12T14:16:31.970Z,40.9
2022-09-12T14:22:12.039Z,40.1
2022-09-12T14:27:53.826Z,39.6
2022-09-12T14:33:31.465Z,36.9
2022-09-12T14:39:09.533Z,34.9
2022-09-12T14:44:31.998Z,33.4
2022-09-12T14:50:11.159Z,31.9
2022-09-12T14:55:50.754Z,30.6
2022-09-12T15:01:28.173Z,29.6
2022-09-12T15:07:07.328Z,28.4
2022-09-12T15:12:45.295Z,27.4
2022-09-12T15:18:24.325Z,26.8
2022-09-12T15:23:47.167Z,25.9
2022-09-12T15:29:25.691Z,25.2
2022-09-12T15:35:03.876Z,24.6
2022-09-12T15:40:45.641Z,24
2022-09-12T15:46:28.105Z,23.5
2022-09-12T15:52:10.585Z,23
2022-09-12T15:57:33.188Z,22.7
2022-09-12T16:03:34.724Z,22.5
2022-09-12T16:08:57.280Z,22.2
2022-09-12T16:14:38.409Z,21.9
2022-09-12T16:20:00.171Z,21.6
2022-09-12T16:25:39.752Z,21.2
2022-09-12T16:31:18.335Z,20.8
2022-09-12T16:36:56.551Z,20.3
2022-09-12T16:42:34.828Z,19.9
2022-09-12T16:48:13.704Z,19.6
2022-09-12T16:53:56.566Z,19.2
2022-09-12T16:59:37.303Z,18.8
2022-09-12T17:05:19.289Z,18.4
2022-09-12T17:10:44.642Z,18.1
2022-09-12T17:16:49.427Z,17.8
2022-09-12T17:22:12.973Z,17.6
2022-09-12T17:27:41.882Z,17.3
2022-09-12T17:33:04.219Z,17.1
2022-09-12T17:38:25.787Z,16.8
2022-09-12T17:44:26.006Z,16.5
2022-09-12T17:50:30.203Z,16.3
2022-09-12T17:55:54.297Z,15.9
2022-09-12T18:01:17.545Z,15.8
2022-09-12T18:06:56.148Z,15.5
2022-09-12T18:12:33.725Z,15.3
2022-09-12T18:18:14.171Z,15.1
2022-09-12T18:23:37.139Z,15
2022-09-12T18:29:20.745Z,14.9
2022-09-12T18:35:09.625Z,14.8
2022-09-12T18:40:35.093Z,14.8
2022-09-12T18:46:13.451Z,14.8
2022-09-12T18:51:51.836Z,14.8
2022-09-12T18:57:31.846Z,14.8
2022-09-12T19:03:09.568Z,14.8
2022-09-12T19:08:47.795Z,14.8
2022-09-12T19:14:29.760Z,14.8
2022-09-12T19:19:57.857Z,14.8
2022-09-12T19:25:20.442Z,14.9
2022-09-12T19:30:44.938Z,14.9
2022-09-12T19:36:17.467Z,14.9
2022-09-12T19:41:51.495Z,14.9
2022-09-12T19:47:29.674Z,14.9
2022-09-12T19:53:12.607Z,14.9
2022-09-12T19:58:55.969Z,14.9
2022-09-12T20:04:33.861Z,14.9
2022-09-12T20:10:14.732Z,14.8
2022-09-12T20:15:53.004Z,14.7
2022-09-12T20:21:30.602Z,14.5
2022-09-12T20:27:11.074Z,14.3
2022-09-12T20:32:49.874Z,14.1
2022-09-12T20:38:12.327Z,13.9
2022-09-12T20:43:50.676Z,13.8
2022-09-12T20:49:31.989Z,13.6
2022-09-12T20:55:09.219Z,13.4
2022-09-12T21:00:46.610Z,13.2
2022-09-12T21:06:25.721Z,13.1
2022-09-12T21:12:03.498Z,12.9
2022-09-12T21:17:42.037Z,12.8
2022-09-12T21:23:21.635Z,12.6
2022-09-12T21:29:05.991Z,12.5
2022-09-12T21:34:33.208Z,12.4
2022-09-12T21:40:11.096Z,12.3
2022-09-12T21:45:49.483Z,12.2
2022-09-12T21:51:27.797Z,12.1
2022-09-12T21:57:05.502Z,12
2022-09-12T22:02:27.449Z,11.9
2022-09-12T22:07:51.383Z,11.9
2022-09-12T22:13:29.219Z,11.8
2022-09-12T22:19:35.428Z,11.8
2022-09-12T22:25:12.302Z,11.7
2022-09-12T22:30:50.013Z,11.6
2022-09-12T22:36:31.074Z,11.5
2022-09-12T22:42:09.035Z,11.5
2022-09-12T22:47:46.588Z,11.5
2022-09-12T22:53:29.181Z,11.4
2022-09-12T22:59:06.077Z,11.3
2022-09-12T23:04:28.896Z,11.3
2022-09-12T23:09:53.202Z,11.3
2022-09-12T23:15:14.043Z,11.3
2022-09-12T23:20:20.422Z,11.2
2022-09-12T23:25:42.094Z,11.2
2022-09-12T23:31:03.360Z,11.1
2022-09-12T23:36:42.260Z,11.1
2022-09-12T23:41:49.633Z,11.1
2022-09-12T23:47:26.461Z,11.1
2022-09-12T23:52:48.370Z,11.2
2022-09-12T23:58:27.766Z,11.3
